Colfax, WA (99111)

10:21 PM PST on February 06, 2016 (GMT -0800)
Barclay Ridge | | Change Station
CLOSE
Current Station
Personal Weather Station
Location: Pullman, WA
Elevation: 2644 ft
Nearby Weather Stations

Elev 2644 ft 46.73 °N, 117.21 °W | Updated 13 minutes ago

Partly Cloudy
Partly Cloudy
32.5 °F
Feels Like 30 °F
N
3.2
Wind Variable Wind from NE

Today
High -- | Low -- °F
--% Chance of Precip.
Yesterday
High -- | Low -- °F
Precip. -- in
Pressure 30.50 in
Visibility 9.0 miles
Clouds Clear
Windchill 30 °F
Dew Point 32 °F
Humidity 96%
Rainfall 0.02 in
Snow Depth Not available.
7:07 AM 4:59 PM
Waning Crescent, 2% visible
METAR KPUW 070553Z AUTO 00000KT 9SM CLR 01/M02 A3043 RMK AO2 SLP326 T00061017 10044 20000 52001
Pressure 30.50 in
Visibility 9.0 miles
Clouds Clear
Windchill 30 °F
Dew Point 32 °F
Humidity 96%
Rainfall 0.02 in
Snow Depth Not available.
7:07 AM 4:59 PM
Waning Crescent, 2% visible
METAR KPUW 070553Z AUTO 00000KT 9SM CLR 01/M02 A3043 RMK AO2 SLP326 T00061017 10044 20000 52001

10-Day Weather Forecast

Almanac

Astronomy

Feb. 06, 2016 Rise Set
Actual Time
Civil Twilight
Nautical Twilight
Astronomical Twilight
Moon
Length of Visible Light
Length of Day
Tomorrow will be .
, % of the Moon is Illuminated

Today's Extremes

State Highs State Lows

Community

WunderPhotos

Upload Photos

1,891,175 photos uploaded!

WunderBlog® & News

Nearby

Air Quality

  Air Quality AQ Index Pollutant
Not available.

Snow Depth

Station Depth Elevation

Earthquake Activity

City Distance Mag. Time & Date
Minimum magnitude displayed is 2.5.

Coastal Water Temperatures

Place Temperature

Stations

Nearby Weather Stations

Station Location Temp. Windchill Dew Point Humidity Wind Precip. Elev Updated Type
                   

Watches & Warnings

There are currently no watches in effect.